createdAt,value
2019-05-19T00:02:13.032Z,100083.49
2019-05-19T00:04:39.816Z,100084.35
2019-05-19T00:07:06.502Z,100082.77
2019-05-19T00:09:33.185Z,100084.70
2019-05-19T00:11:59.839Z,100078.14
2019-05-19T00:14:26.553Z,100079.32
2019-05-19T00:16:53.227Z,100081.65
2019-05-19T00:19:26.898Z,100082.32
2019-05-19T00:21:48.690Z,100083.85
2019-05-19T00:24:15.370Z,100079.12
2019-05-19T00:26:43.149Z,100078.98
2019-05-19T00:29:10.046Z,100088.14
2019-05-19T00:31:36.729Z,100084.43
2019-05-19T00:34:03.539Z,100083.20
2019-05-19T00:36:30.286Z,100085.06
2019-05-19T00:38:56.977Z,100091.70
2019-05-19T00:41:23.771Z,100093.81
2019-05-19T00:43:50.558Z,100097.05
2019-05-19T00:46:17.325Z,100093.12
2019-05-19T00:48:44.809Z,100093.27
2019-05-19T00:51:11.835Z,100090.16
2019-05-19T00:53:38.510Z,100091.27
2019-05-19T00:56:05.320Z,100092.22
2019-05-19T00:58:32.931Z,100090.95
2019-05-19T01:00:59.753Z,100087.84
2019-05-19T01:03:26.463Z,100091.93
2019-05-19T01:05:53.244Z,100085.75
2019-05-19T01:08:20.276Z,100080.18
2019-05-19T01:10:47.045Z,100082.30
2019-05-19T01:13:15.686Z,100085.56
2019-05-19T01:15:42.608Z,100081.15
2019-05-19T01:18:09.300Z,100079.44
2019-05-19T01:20:36.084Z,100078.55
2019-05-19T01:23:02.905Z,100078.14
2019-05-19T01:25:29.660Z,100080.89
2019-05-19T01:27:56.582Z,100081.81
2019-05-19T01:30:23.731Z,100084.92
2019-05-19T01:32:50.642Z,100086.95
2019-05-19T01:35:17.321Z,100082.91
2019-05-19T01:37:44.007Z,100080.16
2019-05-19T01:40:11.912Z,100078.39
2019-05-19T01:42:38.602Z,100078.39
2019-05-19T01:45:05.610Z,100085.39
2019-05-19T01:47:32.294Z,100078.70
2019-05-19T01:50:16.547Z,100075.98
2019-05-19T01:52:27.573Z,100076.44
2019-05-19T01:54:54.271Z,100077.48
2019-05-19T01:57:21.051Z,100071.42
2019-05-19T01:59:47.762Z,100074.44
2019-05-19T02:02:14.480Z,100073.03
2019-05-19T02:04:41.293Z,100068.06
2019-05-19T02:07:08.092Z,100062.73
2019-05-19T02:09:34.910Z,100062.03
2019-05-19T02:12:01.700Z,100057.45
2019-05-19T02:14:28.452Z,100060.92
2019-05-19T02:16:55.321Z,100060.73
2019-05-19T02:19:22.182Z,100058.47
2019-05-19T02:21:48.964Z,100056.20
2019-05-19T02:24:15.765Z,100053.23
2019-05-19T02:26:42.558Z,100052.92
2019-05-19T02:29:09.350Z,100043.88
2019-05-19T02:31:36.080Z,100047.89
2019-05-19T02:34:03.066Z,100037.85
2019-05-19T02:36:29.748Z,100041.47
2019-05-19T02:38:56.459Z,100039.45
2019-05-19T02:41:25.123Z,100047.34
2019-05-19T02:43:52.443Z,100051.11
2019-05-19T02:46:19.622Z,100047.09
2019-05-19T02:48:46.532Z,100051.38
2019-05-19T02:51:13.754Z,100058.30
2019-05-19T02:53:42.419Z,100065.53
2019-05-19T02:56:09.704Z,100061.61
2019-05-19T02:58:36.808Z,100057.23
2019-05-19T03:01:03.485Z,100065.08
2019-05-19T03:03:30.212Z,100060.67
2019-05-19T03:05:57.013Z,100070.72
2019-05-19T03:08:23.706Z,100080.31
2019-05-19T03:10:51.422Z,100080.87
2019-05-19T03:13:18.113Z,100074.45
2019-05-19T03:15:44.797Z,100079.02
2019-05-19T03:18:11.493Z,100083.24
2019-05-19T03:20:38.153Z,100077.25
2019-05-19T03:23:04.830Z,100076.14
2019-05-19T03:25:31.515Z,100072.34
2019-05-19T03:27:58.323Z,100075.50
2019-05-19T03:30:53.466Z,100081.92
2019-05-19T03:33:23.517Z,100087.30
2019-05-19T03:35:50.175Z,100087.86
2019-05-19T03:38:16.858Z,100091.10
2019-05-19T03:40:43.665Z,100095.55
2019-05-19T03:43:10.637Z,100087.65
2019-05-19T03:45:37.538Z,100085.59
2019-05-19T03:48:04.426Z,100086.94
2019-05-19T03:50:31.209Z,100094.38
2019-05-19T03:52:58.136Z,100093.33
2019-05-19T03:55:24.797Z,100101.03
2019-05-19T03:57:51.475Z,100095.45
2019-05-19T04:00:19.668Z,100100.28
2019-05-19T04:02:46.364Z,100100.63
2019-05-19T04:05:13.250Z,100109.79
2019-05-19T04:07:40.303Z,100110.83
2019-05-19T04:10:07.541Z,100108.84
2019-05-19T04:12:34.328Z,100101.73
2019-05-19T04:15:02.314Z,100104.15
2019-05-19T04:17:29.084Z,100100.91
2019-05-19T04:19:55.777Z,100095.17
2019-05-19T04:22:22.813Z,100097.26
2019-05-19T04:24:51.405Z,100096.09
2019-05-19T04:27:18.115Z,100106.76
2019-05-19T04:29:44.836Z,100112.61
2019-05-19T04:32:11.490Z,100114.97
2019-05-19T04:34:38.182Z,100106.02
2019-05-19T04:37:05.150Z,100115.83
2019-05-19T04:39:32.112Z,100115.28
2019-05-19T04:41:58.807Z,100119.69
2019-05-19T04:44:25.586Z,100116.81
2019-05-19T04:46:52.414Z,100059.02
2019-05-19T04:49:19.077Z,100114.20
2019-05-19T04:51:45.766Z,100115.34
2019-05-19T04:54:13.577Z,100115.64
2019-05-19T04:56:40.258Z,100115.00
2019-05-19T04:59:06.945Z,100113.28
2019-05-19T05:01:33.634Z,100104.30
2019-05-19T05:04:00.338Z,100112.64
2019-05-19T05:06:27.058Z,100108.23
2019-05-19T05:08:53.858Z,100109.64
2019-05-19T05:11:20.520Z,100106.11
2019-05-19T05:13:47.208Z,100111.08
2019-05-19T05:16:14.984Z,100106.66
2019-05-19T05:18:41.688Z,100105.01
2019-05-19T05:21:08.654Z,100103.05
2019-05-19T05:23:35.351Z,100100.89
2019-05-19T05:26:02.052Z,100102.36
2019-05-19T05:28:28.754Z,100102.70
2019-05-19T05:30:55.511Z,100103.89
2019-05-19T05:33:22.205Z,100106.53
2019-05-19T05:35:48.986Z,100109.94
2019-05-19T05:38:16.237Z,100106.88
2019-05-19T05:40:42.928Z,100105.22
2019-05-19T05:43:09.617Z,100102.55
2019-05-19T05:45:36.316Z,100101.65
2019-05-19T05:48:03.138Z,100097.81
2019-05-19T05:50:29.818Z,100099.42
2019-05-19T05:52:56.604Z,100091.46
2019-05-19T05:55:23.402Z,100087.18
2019-05-19T05:57:50.081Z,100099.42
2019-05-19T06:00:17.082Z,100102.95
2019-05-19T06:02:43.740Z,100102.44
2019-05-19T06:05:10.615Z,100102.78
2019-05-19T06:07:37.303Z,100100.03
2019-05-19T06:10:04.961Z,100103.66
2019-05-19T06:12:31.651Z,100100.72
2019-05-19T06:14:58.370Z,100106.80
2019-05-19T06:17:25.079Z,100107.25
2019-05-19T06:19:51.838Z,100104.88
2019-05-19T06:22:18.716Z,100102.31
2019-05-19T06:24:45.388Z,100108.34
2019-05-19T06:27:12.061Z,100103.66
2019-05-19T06:29:38.847Z,100107.91
2019-05-19T06:32:13.588Z,100111.03
2019-05-19T06:34:40.278Z,100101.91
2019-05-19T06:37:06.954Z,100108.20
2019-05-19T06:39:33.623Z,100109.46
2019-05-19T06:42:00.477Z,100105.83
2019-05-19T06:44:27.217Z,100105.11
2019-05-19T06:46:53.983Z,100105.54
2019-05-19T06:49:20.756Z,100102.68
2019-05-19T06:51:47.539Z,100104.48
2019-05-19T06:54:14.234Z,100108.27
2019-05-19T06:56:40.939Z,100112.65
2019-05-19T06:59:07.600Z,100116.48
2019-05-19T07:01:34.304Z,100110.38
2019-05-19T07:04:00.961Z,100105.62
2019-05-19T07:06:27.734Z,100107.28
2019-05-19T07:08:55.818Z,100116.16
2019-05-19T07:11:22.519Z,100111.67
2019-05-19T07:13:49.292Z,100114.46
2019-05-19T07:16:15.983Z,100112.78
2019-05-19T07:18:42.673Z,100118.56
2019-05-19T07:21:09.365Z,100122.13
2019-05-19T07:23:37.273Z,100122.94
2019-05-19T07:26:04.154Z,100122.09
2019-05-19T07:28:30.941Z,100125.47
2019-05-19T07:30:57.726Z,100129.42
2019-05-19T07:33:24.405Z,100133.06
2019-05-19T07:35:51.093Z,100137.07
2019-05-19T07:38:17.897Z,100131.77
2019-05-19T07:40:44.656Z,100131.41
2019-05-19T07:43:11.422Z,100125.52
2019-05-19T07:45:39.251Z,100126.78
2019-05-19T07:48:05.971Z,100131.45
2019-05-19T07:50:32.644Z,100124.62
2019-05-19T07:53:12.366Z,100126.05
2019-05-19T07:55:39.053Z,100121.81
2019-05-19T07:58:05.832Z,100125.50
2019-05-19T08:00:32.506Z,100133.23
2019-05-19T08:02:59.242Z,100131.42
2019-05-19T08:05:26.016Z,100140.31
2019-05-19T08:07:52.687Z,100137.82
2019-05-19T08:10:19.418Z,100136.59
2019-05-19T08:12:46.062Z,100143.00
2019-05-19T08:15:13.040Z,100147.35
2019-05-19T08:17:39.803Z,100142.52
2019-05-19T08:20:06.679Z,100143.72
2019-05-19T08:22:34.566Z,100142.43
2019-05-19T08:25:01.227Z,100143.45
2019-05-19T08:27:27.899Z,100142.06
2019-05-19T08:29:54.793Z,100143.64
2019-05-19T08:32:21.582Z,100140.72
2019-05-19T08:34:48.269Z,100148.02
2019-05-19T08:37:15.148Z,100145.89
2019-05-19T08:39:41.782Z,100142.61
2019-05-19T08:42:08.461Z,100143.73
2019-05-19T08:44:35.258Z,100144.59
2019-05-19T08:47:01.985Z,100146.27
2019-05-19T08:49:28.720Z,100151.38
2019-05-19T08:51:55.468Z,100147.25
2019-05-19T08:54:22.176Z,100151.73
2019-05-19T08:56:49.393Z,100145.48
2019-05-19T08:59:16.095Z,100144.55
2019-05-19T09:01:42.759Z,100146.85
2019-05-19T09:04:09.535Z,100149.37
2019-05-19T09:06:36.230Z,100148.94
2019-05-19T09:09:04.292Z,100153.23
2019-05-19T09:11:31.182Z,100153.30
2019-05-19T09:13:58.031Z,100152.03
2019-05-19T09:16:24.682Z,100146.78
2019-05-19T09:18:51.476Z,100149.02
2019-05-19T09:21:18.159Z,100142.69
2019-05-19T09:23:44.925Z,100144.69
2019-05-19T09:26:11.623Z,100139.91
2019-05-19T09:28:38.382Z,100143.27
2019-05-19T09:31:05.187Z,100136.39
2019-05-19T09:33:31.877Z,100132.52
2019-05-19T09:35:58.655Z,100135.47
2019-05-19T09:38:25.430Z,100131.90
2019-05-19T09:40:52.115Z,100134.12
2019-05-19T09:43:18.897Z,100126.62
2019-05-19T09:45:45.693Z,100131.33
2019-05-19T09:48:12.471Z,100125.43
2019-05-19T09:50:39.252Z,100125.45
2019-05-19T09:53:05.934Z,100123.46
2019-05-19T09:55:32.662Z,100117.28
2019-05-19T09:57:59.474Z,100113.88
2019-05-19T10:00:26.403Z,100117.86
2019-05-19T10:02:53.102Z,100120.63
2019-05-19T10:05:20.296Z,100122.10
2019-05-19T10:07:47.020Z,100122.73
2019-05-19T10:10:16.687Z,100117.95
2019-05-19T10:12:45.731Z,100113.61
2019-05-19T10:15:13.488Z,100115.67
2019-05-19T10:17:40.173Z,100109.83
2019-05-19T10:20:07.568Z,100111.77
2019-05-19T10:22:34.402Z,100118.05
2019-05-19T10:25:20.387Z,100108.59
2019-05-19T10:27:29.896Z,100111.93
2019-05-19T10:29:56.563Z,100105.66
2019-05-19T10:32:23.322Z,100110.23
2019-05-19T10:34:50.251Z,100106.31
2019-05-19T10:37:16.937Z,100107.97
2019-05-19T10:39:43.839Z,100108.25
2019-05-19T10:42:10.587Z,100099.48
2019-05-19T10:44:37.406Z,100096.59
2019-05-19T10:47:04.255Z,100092.00
2019-05-19T10:49:31.019Z,100094.78
2019-05-19T10:51:57.926Z,100092.62
2019-05-19T10:54:24.703Z,100087.59
2019-05-19T10:56:51.489Z,100083.58
2019-05-19T10:59:18.295Z,100085.16
2019-05-19T11:01:44.960Z,100086.09
2019-05-19T11:04:11.745Z,100085.16
2019-05-19T11:06:38.434Z,100082.20
2019-05-19T11:09:06.124Z,100081.22
2019-05-19T11:11:32.989Z,100088.91
2019-05-19T11:13:59.682Z,100088.56
2019-05-19T11:16:26.445Z,100031.31
2019-05-19T11:18:53.210Z,100087.45
2019-05-19T11:21:19.931Z,100087.50
2019-05-19T11:23:46.782Z,100082.92
2019-05-19T11:26:13.561Z,100073.58
2019-05-19T11:28:40.257Z,100077.22
2019-05-19T11:31:07.029Z,100075.19
2019-05-19T11:33:33.686Z,100070.16
2019-05-19T11:36:00.405Z,100074.43
2019-05-19T11:38:27.076Z,100071.01
2019-05-19T11:40:53.801Z,100075.19
2019-05-19T11:43:20.442Z,100071.88
2019-05-19T11:45:48.328Z,100071.92
2019-05-19T11:48:15.027Z,100069.02
2019-05-19T11:50:42.305Z,100068.30
2019-05-19T11:53:09.179Z,100070.93
2019-05-19T11:55:36.282Z,100070.47
2019-05-19T11:58:02.973Z,100070.95
2019-05-19T12:00:29.859Z,100062.50
2019-05-19T12:02:56.530Z,100065.92
2019-05-19T12:05:23.560Z,100068.91
2019-05-19T12:07:50.912Z,100060.83
2019-05-19T12:10:17.739Z,100060.84
2019-05-19T12:12:44.438Z,100059.92
2019-05-19T12:15:11.433Z,100057.84
2019-05-19T12:17:38.094Z,100054.88
2019-05-19T12:20:04.910Z,100052.70
2019-05-19T12:22:31.699Z,100052.31
2019-05-19T12:24:58.486Z,100052.30
2019-05-19T12:27:25.289Z,100047.48
2019-05-19T12:29:52.118Z,100053.73
2019-05-19T12:32:18.867Z,100052.50
2019-05-19T12:34:45.538Z,100056.89
2019-05-19T12:37:12.239Z,100049.12
2019-05-19T12:39:38.917Z,100041.39
2019-05-19T12:42:05.757Z,100037.55
2019-05-19T12:44:32.588Z,100040.18
2019-05-19T12:46:59.284Z,100033.37
2019-05-19T12:49:26.050Z,100039.17
2019-05-19T12:51:52.953Z,100034.95
2019-05-19T12:54:19.634Z,100038.05
2019-05-19T12:56:46.306Z,100033.43
2019-05-19T12:59:13.295Z,100033.95
2019-05-19T13:01:40.515Z,100032.89
2019-05-19T13:04:07.357Z,100037.24
2019-05-19T13:06:34.042Z,100039.48
2019-05-19T13:09:00.762Z,100032.58
2019-05-19T13:11:27.459Z,100037.41
2019-05-19T13:13:54.149Z,100031.02
2019-05-19T13:16:20.932Z,100029.47
2019-05-19T13:18:47.613Z,100024.84
2019-05-19T13:21:14.403Z,100023.39
2019-05-19T13:23:41.118Z,100015.33
2019-05-19T13:26:07.906Z,100015.59
2019-05-19T13:28:34.587Z,100016.06
2019-05-19T13:31:01.262Z,100007.34
2019-05-19T13:33:28.134Z,100014.05
2019-05-19T13:35:54.797Z,100013.60
2019-05-19T13:38:21.478Z,100016.31
2019-05-19T13:40:48.260Z,100016.21
2019-05-19T13:43:15.038Z,100008.36
2019-05-19T13:45:42.859Z,100006.16
2019-05-19T13:48:09.573Z,100003.03
2019-05-19T13:50:36.246Z,100000.67
2019-05-19T13:53:03.026Z,100004.66
2019-05-19T13:55:30.018Z,100000.71
2019-05-19T13:57:56.797Z,99999.02
2019-05-19T14:00:23.595Z,100007.48
2019-05-19T14:02:50.282Z,100005.16
2019-05-19T14:05:17.081Z,100008.68
2019-05-19T14:07:44.874Z,100003.21
2019-05-19T14:10:12.070Z,99999.38
2019-05-19T14:12:38.872Z,100002.36
2019-05-19T14:15:05.872Z,99997.65
2019-05-19T14:17:33.693Z,99992.94
2019-05-19T14:20:00.598Z,99989.14
2019-05-19T14:22:27.310Z,99989.97
2019-05-19T14:24:53.974Z,99995.09
2019-05-19T14:27:29.606Z,99985.30
2019-05-19T14:29:49.344Z,99983.17
2019-05-19T14:32:17.188Z,99986.55
2019-05-19T14:34:44.080Z,99989.09
2019-05-19T14:37:10.881Z,99991.27
2019-05-19T14:39:37.662Z,99986.16
2019-05-19T14:42:08.074Z,99990.43
2019-05-19T14:44:34.761Z,99989.59
2019-05-19T14:47:01.586Z,99983.54
2019-05-19T14:49:28.385Z,99990.73
2019-05-19T14:51:55.093Z,99983.87
2019-05-19T14:54:21.809Z,99979.59
2019-05-19T14:56:48.492Z,99981.27
2019-05-19T14:59:15.164Z,99987.70
2019-05-19T15:01:41.942Z,99983.87
2019-05-19T15:04:08.610Z,99976.53
2019-05-19T15:06:35.372Z,99984.70
2019-05-19T15:09:02.243Z,99977.80
2019-05-19T15:11:30.362Z,99971.82
2019-05-19T15:13:57.061Z,99980.30
2019-05-19T15:16:23.776Z,99976.85
2019-05-19T15:18:50.467Z,99975.05
2019-05-19T15:21:17.167Z,99974.59
2019-05-19T15:23:43.900Z,99980.14
2019-05-19T15:26:10.590Z,99975.02
2019-05-19T15:28:37.294Z,99974.57
2019-05-19T15:31:04.027Z,99979.70
2019-05-19T15:33:37.697Z,99980.95
2019-05-19T15:35:59.313Z,99976.73
2019-05-19T15:38:26.334Z,99975.92
2019-05-19T15:40:53.039Z,99972.04
2019-05-19T15:43:19.807Z,99969.99
2019-05-19T15:45:46.477Z,99963.85
2019-05-19T15:48:14.203Z,99962.55
2019-05-19T15:50:40.878Z,99962.02
2019-05-19T15:53:07.560Z,99960.38
2019-05-19T15:55:34.341Z,99945.72
2019-05-19T15:58:15.566Z,99943.08
2019-05-19T16:00:29.686Z,99944.70
2019-05-19T16:02:56.531Z,99939.41
2019-05-19T16:05:23.243Z,99932.13
2019-05-19T16:07:49.920Z,99935.78
2019-05-19T16:10:16.713Z,99940.98
2019-05-19T16:12:43.405Z,99944.81
2019-05-19T16:15:10.385Z,99936.28
2019-05-19T16:17:37.074Z,99935.78
2019-05-19T16:20:05.060Z,99938.01
2019-05-19T16:22:31.733Z,99943.11
2019-05-19T16:24:58.398Z,99938.72
2019-05-19T16:27:25.351Z,99946.76
2019-05-19T16:29:52.107Z,99949.66
2019-05-19T16:32:18.942Z,99946.58
2019-05-19T16:34:45.636Z,99944.84
2019-05-19T16:37:12.328Z,99946.66
2019-05-19T16:39:38.986Z,99944.95
2019-05-19T16:42:05.862Z,99942.02
2019-05-19T16:44:32.632Z,99939.54
2019-05-19T16:46:59.505Z,99939.19
2019-05-19T16:49:26.193Z,99937.55
2019-05-19T16:51:53.121Z,99936.63
2019-05-19T16:54:24.959Z,99945.02
2019-05-19T16:56:52.019Z,99936.14
2019-05-19T16:59:19.190Z,99941.16
2019-05-19T17:01:45.911Z,99934.72
2019-05-19T17:04:12.779Z,99932.56
2019-05-19T17:06:41.391Z,99934.14
2019-05-19T17:09:08.573Z,99931.81
2019-05-19T17:11:35.975Z,99928.89
2019-05-19T17:14:03.070Z,99928.62
2019-05-19T17:16:29.755Z,99923.28
2019-05-19T17:18:56.407Z,99918.23
2019-05-19T17:21:24.356Z,99916.16
2019-05-19T17:23:51.569Z,99915.69
2019-05-19T17:26:18.199Z,99921.97
2019-05-19T17:28:59.579Z,99916.87
2019-05-19T17:31:13.754Z,99920.52
2019-05-19T17:33:41.605Z,99915.39
2019-05-19T17:36:08.912Z,99920.69
2019-05-19T17:38:35.838Z,99910.79
2019-05-19T17:41:02.616Z,99910.70
2019-05-19T17:43:29.396Z,99907.31
2019-05-19T17:45:56.147Z,99908.11
2019-05-19T17:48:26.615Z,99909.66
2019-05-19T17:50:51.531Z,99911.73
2019-05-19T17:53:18.523Z,99910.30
2019-05-19T17:55:45.498Z,99914.59
2019-05-19T17:58:12.285Z,99908.66
2019-05-19T18:00:39.785Z,99912.09
2019-05-19T18:03:09.206Z,99912.94
2019-05-19T18:05:36.142Z,99913.11
2019-05-19T18:08:03.139Z,99906.86
2019-05-19T18:10:29.934Z,99910.23
2019-05-19T18:12:56.833Z,99922.36
2019-05-19T18:15:24.794Z,99916.52
2019-05-19T18:17:51.583Z,99914.93
2019-05-19T18:20:23.640Z,99917.63
2019-05-19T18:22:47.190Z,99920.48
2019-05-19T18:25:13.989Z,99915.27
2019-05-19T18:27:41.078Z,99915.33
2019-05-19T18:30:08.143Z,99914.86
2019-05-19T18:32:34.818Z,99923.26
2019-05-19T18:35:01.691Z,99922.66
2019-05-19T18:37:28.348Z,99928.41
2019-05-19T18:39:55.015Z,99927.27
2019-05-19T18:42:21.804Z,99931.38
2019-05-19T18:44:51.794Z,99925.83
2019-05-19T18:47:21.085Z,99934.73
2019-05-19T18:49:48.216Z,99934.38
2019-05-19T18:52:15.305Z,99932.75
2019-05-19T18:54:42.073Z,99939.00
2019-05-19T18:57:08.811Z,99934.73
2019-05-19T18:59:47.051Z,99939.93
2019-05-19T19:02:04.402Z,99937.05
2019-05-19T19:04:31.301Z,99940.32
2019-05-19T19:06:58.295Z,99946.95
2019-05-19T19:09:24.981Z,99951.12
2019-05-19T19:11:51.700Z,99956.86
2019-05-19T19:14:18.505Z,99955.80
2019-05-19T19:16:45.196Z,99955.78
2019-05-19T19:19:11.859Z,99956.83
2019-05-19T19:21:38.543Z,99956.10
2019-05-19T19:24:05.318Z,99953.98
2019-05-19T19:26:32.453Z,99958.41
2019-05-19T19:28:59.157Z,99961.89
2019-05-19T19:31:25.928Z,99960.63
2019-05-19T19:33:52.740Z,99971.78
2019-05-19T19:36:20.498Z,99974.62
2019-05-19T19:38:47.343Z,99968.64
2019-05-19T19:41:15.336Z,99969.43
2019-05-19T19:43:41.998Z,99976.44
2019-05-19T19:46:08.690Z,99979.85
2019-05-19T19:48:35.474Z,99978.42
2019-05-19T19:51:02.241Z,99983.71
2019-05-19T19:53:29.022Z,99981.37
2019-05-19T19:55:55.852Z,99980.99
2019-05-19T19:58:22.676Z,99979.85
2019-05-19T20:00:49.522Z,99981.39
2019-05-19T20:03:16.538Z,99984.91
2019-05-19T20:05:45.639Z,99990.77
2019-05-19T20:08:12.541Z,99990.89
2019-05-19T20:10:39.345Z,99989.34
2019-05-19T20:13:06.019Z,99995.64
2019-05-19T20:15:33.259Z,99988.03
2019-05-19T20:18:00.236Z,99986.56
2019-05-19T20:20:27.011Z,99995.41
2019-05-19T20:22:54.990Z,99995.25
2019-05-19T20:25:23.943Z,99993.80
2019-05-19T20:27:50.891Z,99997.52
2019-05-19T20:30:33.632Z,99999.10
2019-05-19T20:32:46.271Z,99997.67
2019-05-19T20:35:13.173Z,99991.21
2019-05-19T20:38:02.602Z,99986.84
2019-05-19T20:40:29.383Z,99986.09
2019-05-19T20:42:56.935Z,99983.52
2019-05-19T20:45:23.970Z,99983.79
2019-05-19T20:47:50.998Z,99993.72
2019-05-19T20:50:17.865Z,99988.44
2019-05-19T20:52:44.533Z,99988.44
2019-05-19T20:55:11.418Z,99993.52
2019-05-19T20:57:38.117Z,100001.41
2019-05-19T21:00:05.994Z,99989.93
2019-05-19T21:02:33.187Z,99990.91
2019-05-19T21:04:59.849Z,99984.53
2019-05-19T21:07:26.538Z,99984.09
2019-05-19T21:09:55.649Z,99990.20
2019-05-19T21:12:22.442Z,99987.72
2019-05-19T21:14:49.213Z,99987.34
2019-05-19T21:17:15.892Z,99984.27
2019-05-19T21:19:44.670Z,99985.98
2019-05-19T21:22:11.446Z,99989.16
2019-05-19T21:24:38.169Z,99988.47
2019-05-19T21:27:04.885Z,99986.45
2019-05-19T21:29:31.547Z,99982.74
2019-05-19T21:31:58.320Z,99984.16
2019-05-19T21:34:25.041Z,99981.03
2019-05-19T21:36:51.740Z,99987.95
2019-05-19T21:39:18.410Z,99989.36
2019-05-19T21:42:08.326Z,99989.70
2019-05-19T21:44:35.048Z,99988.10
2019-05-19T21:47:01.690Z,99993.59
2019-05-19T21:49:28.361Z,99991.45
2019-05-19T21:51:55.075Z,99988.59
2019-05-19T21:54:21.845Z,99984.98
2019-05-19T21:56:48.514Z,99983.91
2019-05-19T21:59:17.204Z,99986.03
2019-05-19T22:01:44.418Z,99987.77
2019-05-19T22:04:11.494Z,99981.91
2019-05-19T22:06:40.212Z,99985.20
2019-05-19T22:09:07.270Z,99990.98
2019-05-19T22:11:34.357Z,99986.46
2019-05-19T22:14:01.041Z,99991.58
2019-05-19T22:16:30.077Z,99988.98
2019-05-19T22:18:56.894Z,99984.55
2019-05-19T22:21:23.628Z,99985.16
2019-05-19T22:23:50.336Z,99983.28
2019-05-19T22:26:19.163Z,99984.60
2019-05-19T22:28:46.031Z,99931.47
2019-05-19T22:31:13.808Z,99980.59
2019-05-19T22:33:40.520Z,99977.50
2019-05-19T22:36:09.500Z,99981.52
2019-05-19T22:38:36.649Z,99985.19
2019-05-19T22:41:03.572Z,99982.42
2019-05-19T22:43:30.246Z,99985.88
2019-05-19T22:45:56.931Z,99984.45
2019-05-19T22:48:23.611Z,99994.95
2019-05-19T22:50:50.299Z,99983.61
2019-05-19T22:53:17.009Z,99984.70
2019-05-19T22:55:43.768Z,99980.27
2019-05-19T22:58:10.437Z,99984.34
2019-05-19T23:00:37.233Z,99984.63
2019-05-19T23:03:03.914Z,99977.38
2019-05-19T23:05:30.694Z,99975.88
2019-05-19T23:07:57.837Z,99979.66
2019-05-19T23:10:24.724Z,99982.30
2019-05-19T23:12:51.410Z,99977.02
2019-05-19T23:15:19.141Z,99979.13
2019-05-19T23:17:45.925Z,99979.09
2019-05-19T23:20:13.658Z,99971.56
2019-05-19T23:22:40.463Z,99971.40
2019-05-19T23:25:07.335Z,99968.64
2019-05-19T23:27:34.102Z,99974.94
2019-05-19T23:30:00.826Z,99970.42
2019-05-19T23:32:27.573Z,99967.16
2019-05-19T23:34:54.356Z,99963.27
2019-05-19T23:37:21.222Z,99960.62
2019-05-19T23:39:48.005Z,99959.69
2019-05-19T23:42:14.696Z,99964.00
2019-05-19T23:44:41.441Z,99957.08
2019-05-19T23:47:08.234Z,99957.13
2019-05-19T23:49:34.926Z,99955.74
2019-05-19T23:52:01.574Z,99952.38
2019-05-19T23:54:28.261Z,99948.53
2019-05-19T23:56:54.938Z,99955.20
2019-05-19T23:59:22.052Z,99957.71
